Cumari, Brazil
Current Conditions -  °F | °C
As of 12:45 AM on Thursday 27 Nov 2014 (Local Time) from SBUL Reporting Station
Scattered Clouds Scattered Clouds  
Wind Chill: 68°   Ceiling: Unl
Heat Index: 68°   Visibility: 6mi
Dew Point: 66°   Wind: 3mph
Humidity: 94%   Direction: 30°NNE
Pressure: 30"   Gusts: NA
Location:  18.26°S, 48.15°W
Report Text: SBUL 270245Z 03003KT 9999 SCT002 SCT050 20/19 Q1016
Loading
Personal Weather Stations






























Interactive Weather Map New forecast layout! Learn more

10-Day Weather Forecast

Advertisements
Track Severe Weather on mobile